Time;durP1;ratioP1;P1;durP2;ratioP2;P2;SDS_P1;SDS_P2;PMS_P1;PMS_P2;Temp;Humidity;BMP_temperature;BMP_pressure;BME280_temperature;BME280_humidity;BME280_pressure;Samples;Min_cycle;Max_cycle;Signal;HPM_P1;HPM_P2
2022/06/01 00:00:42;;;;;;;1.15;0.85;;;;;;;10.46;55.39;98741.38;5034447;28;20034;-62
2022/06/01 00:03:07;;;;;;;2.88;2.22;;;;;;;11.98;52.34;98732.38;5034552;28;20037;-65
2022/06/01 00:05:33;;;;;;;1.02;0.75;;;;;;;13.41;49.48;98742.16;5034530;28;20061;-62
2022/06/01 00:07:59;;;;;;;0.90;0.90;;;;;;;14.74;47.46;98735.59;5034437;28;20041;-64
2022/06/01 00:10:26;;;;;;;4.28;0.70;;;;;;;15.92;45.78;98734.34;5034429;28;20102;-63
2022/06/01 00:12:54;;;;;;;0.73;0.73;;;;;;;17.07;44.47;98733.38;5016674;28;20029;-63
2022/06/01 00:15:21;;;;;;;0.50;0.50;;;;;;;18.08;43.20;98730.56;5033906;28;20048;-64
2022/06/01 00:17:47;;;;;;;0.63;0.47;;;;;;;18.96;42.46;98736.34;5034269;28;20044;-62
2022/06/01 00:20:14;;;;;;;0.60;0.60;;;;;;;19.81;41.65;98734.06;5034517;28;20130;-62
2022/06/01 00:22:44;;;;;;;0.77;0.77;;;;;;;20.53;41.01;98726.69;5034397;28;20038;-62
2022/06/01 00:25:11;;;;;;;0.60;0.60;;;;;;;21.13;40.47;98735.19;5033959;28;20033;-62
2022/06/01 00:27:37;;;;;;;0.60;0.60;;;;;;;21.72;40.25;98737.44;5032769;28;20184;-62
2022/06/01 00:30:05;;;;;;;1.60;1.08;;;;;;;22.33;39.86;98729.72;5034117;28;20489;-63
2022/06/01 00:32:31;;;;;;;1.58;0.75;;;;;;;23.09;38.97;98731.78;5034082;28;20045;-63
2022/06/01 00:35:00;;;;;;;0.82;0.82;;;;;;;24.06;38.00;98726.66;5034161;28;20044;-64
2022/06/01 00:37:27;;;;;;;0.10;0.10;;;;;;;24.92;37.25;98727.03;5033815;28;20500;-63
2022/06/01 00:39:55;;;;;;;1.75;0.82;;;;;;;25.69;36.57;98725.19;5033874;28;20046;-63
2022/06/01 00:42:24;;;;;;;0.68;0.68;;;;;;;26.34;35.90;98722.19;5034068;28;20076;-61
2022/06/01 00:44:50;;;;;;;0.47;0.47;;;;;;;26.76;35.95;98732.66;5033460;28;20518;-62
2022/06/01 00:47:16;;;;;;;1.05;1.02;;;;;;;27.23;35.45;98729.53;5033390;28;20041;-62
2022/06/01 00:49:48;;;;;;;0.28;0.28;;;;;;;27.79;35.25;98726.22;5033862;28;20042;-61
2022/06/01 00:52:15;;;;;;;0.68;0.68;;;;;;;28.24;35.17;98730.13;5033327;28;20045;-62
2022/06/01 00:54:41;;;;;;;0.28;0.28;;;;;;;28.79;34.42;98741.09;5033348;28;20029;-62
2022/06/01 00:57:13;;;;;;;0.30;0.30;;;;;;;29.30;34.16;98729.19;5033286;28;20048;-63
2022/06/01 00:59:42;;;;;;;0.52;0.52;;;;;;;29.69;33.73;98718.91;5033040;28;20049;-63
2022/06/01 01:02:09;;;;;;;1.40;0.77;;;;;;;29.98;33.62;98719.66;5033307;28;20040;-60
2022/06/01 01:04:38;;;;;;;2.78;0.73;;;;;;;30.08;33.76;98720.28;5033705;28;20697;-63
2022/06/01 01:07:09;;;;;;;0.28;0.25;;;;;;;30.29;33.82;98720.78;5033472;28;20519;-65
2022/06/01 01:09:35;;;;;;;0.95;0.95;;;;;;;30.75;33.24;98726.69;5032964;28;20053;-61
2022/06/01 01:12:06;;;;;;;0.63;0.30;;;;;;;31.26;32.95;98719.22;5031795;28;20038;-62
2022/06/01 01:14:37;;;;;;;0.47;0.47;;;;;;;31.73;32.71;98731.41;5032759;28;20415;-63
2022/06/01 01:17:04;;;;;;;0.98;0.40;;;;;;;32.07;32.33;98723.88;5033151;28;20045;-62
2022/06/01 01:19:49;;;;;;;0.20;0.20;;;;;;;32.44;31.76;98731.75;5032981;28;20084;-63
2022/06/01 01:22:36;;;;;;;0.52;0.47;;;;;;;32.82;31.58;98729.88;5032974;28;20046;-61
2022/06/01 01:25:20;;;;;;;2.47;0.88;;;;;;;33.21;31.35;98730.75;5032970;28;20041;-62
2022/06/01 01:27:48;;;;;;;0.30;0.30;;;;;;;33.48;31.20;98732.28;5032877;28;20053;-62
2022/06/01 01:30:34;;;;;;;0.30;0.30;;;;;;;33.83;30.93;98738.72;5032786;28;20051;-62
2022/06/01 01:33:15;;;;;;;0.32;0.32;;;;;;;34.17;30.56;98736.56;5032659;28;20408;-62
2022/06/01 01:35:44;;;;;;;0.68;0.68;;;;;;;34.50;30.37;98733.94;5032809;28;20044;-62
2022/06/01 01:38:25;;;;;;;0.17;0.17;;;;;;;34.94;29.97;98732.13;5032283;28;20151;-63
2022/06/01 01:41:04;;;;;;;0.50;0.50;;;;;;;35.36;29.68;98728.59;5030330;28;20454;-61
2022/06/01 01:43:32;;;;;;;0.80;0.30;;;;;;;35.70;29.53;98733.97;5032926;28;20037;-61
2022/06/01 01:45:58;;;;;;;1.10;0.30;;;;;;;36.02;29.69;98752.38;5031929;28;20037;-63
2022/06/01 01:48:23;;;;;;;0.40;0.40;;;;;;;36.27;29.37;98747.44;5031577;28;20049;-61
2022/06/01 01:50:49;;;;;;;1.27;1.17;;;;;;;36.52;28.78;98758.06;5032159;28;20099;-65
2022/06/01 01:53:15;;;;;;;0.85;0.85;;;;;;;36.86;28.50;98751.03;5032351;28;20061;-63
2022/06/01 01:55:53;;;;;;;0.25;0.25;;;;;;;37.17;28.60;98740.66;5032029;28;20132;-64
2022/06/01 01:58:53;;;;;;;0.35;0.35;;;;;;;37.70;28.11;98744.44;5032529;28;20045;-62
2022/06/01 02:01:28;;;;;;;0.20;0.20;;;;;;;38.07;27.57;98745.00;5006749;28;20062;-66
2022/06/01 02:04:00;;;;;;;1.45;0.40;;;;;;;38.46;27.57;98741.78;5032219;28;20099;-63
2022/06/01 02:06:34;;;;;;;0.30;0.30;;;;;;;38.69;27.06;98754.66;5032598;28;20052;-67
2022/06/01 02:09:08;;;;;;;0.10;0.10;;;;;;;38.95;27.12;98740.84;5032231;28;20427;-68
2022/06/01 02:14:28;;;;;;;0.30;0.30;;;;;;;39.75;26.46;98736.47;5032154;28;20048;-67
2022/06/01 02:17:10;;;;;;;0.47;0.40;;;;;;;40.09;26.18;98729.75;5031941;28;20049;-65
2022/06/01 02:19:44;;;;;;;0.45;0.45;;;;;;;40.34;25.78;98736.28;5032266;28;20092;-65
2022/06/01 02:22:13;;;;;;;0.30;0.30;;;;;;;40.53;25.85;98743.38;5031519;28;20077;-64
2022/06/01 02:24:40;;;;;;;0.65;0.40;;;;;;;40.69;25.54;98743.44;5039988;28;20091;-64
2022/06/01 02:27:08;;;;;;;0.15;0.15;;;;;;;40.82;25.60;98737.84;5048525;28;20538;-64
2022/06/01 02:29:41;;;;;;;0.43;0.43;;;;;;;40.95;25.67;98747.47;5030608;28;20049;-66
2022/06/01 02:32:10;;;;;;;0.30;0.30;;;;;;;40.98;25.47;98757.31;5031767;28;20064;-65
2022/06/01 02:34:37;;;;;;;0.10;0.10;;;;;;;41.09;25.40;98746.34;5031656;28;20052;-65
2022/06/01 02:37:05;;;;;;;1.05;0.50;;;;;;;41.25;25.05;98753.44;5031573;28;20103;-66
2022/06/01 02:39:33;;;;;;;2.83;0.77;;;;;;;41.22;25.00;98739.91;5031432;28;20107;-65
2022/06/01 02:45:04;;;;;;;0.68;0.28;;;;;;;41.87;24.50;98749.97;5031526;28;20104;-65
2022/06/01 02:47:33;;;;;;;0.38;0.38;;;;;;;42.15;23.91;98743.47;5030989;28;20048;-65
2022/06/01 02:49:59;;;;;;;0.95;0.47;;;;;;;42.43;23.77;98751.84;5031896;28;20503;-66
2022/06/01 02:52:26;;;;;;;0.47;0.30;;;;;;;42.61;23.82;98749.31;5035441;28;20478;-66
2022/06/01 02:54:54;;;;;;;1.40;0.60;;;;;;;42.95;23.12;98750.00;5035981;28;20503;-64
2022/06/01 02:57:21;;;;;;;0.60;0.55;;;;;;;43.20;23.00;98747.19;5035284;28;20064;-65
2022/06/01 02:59:47;;;;;;;1.02;0.82;;;;;;;43.45;22.83;98748.53;5035670;28;20514;-65
2022/06/01 03:02:13;;;;;;;0.75;0.75;;;;;;;43.46;22.78;98755.13;5035840;28;20075;-65
2022/06/01 03:04:41;;;;;;;0.40;0.40;;;;;;;43.33;22.82;98747.22;5035721;28;20044;-64
2022/06/01 03:07:07;;;;;;;0.75;0.47;;;;;;;43.40;22.61;98752.75;5035384;28;20045;-66
2022/06/01 03:09:34;;;;;;;0.13;0.13;;;;;;;43.63;22.79;98750.84;5034746;28;20089;-65
2022/06/01 03:12:00;;;;;;;0.20;0.20;;;;;;;43.91;22.52;98752.00;5035164;28;20099;-65
2022/06/01 03:14:27;;;;;;;0.38;0.38;;;;;;;44.01;21.81;98755.00;5034627;28;20046;-66
2022/06/01 03:16:53;;;;;;;0.32;0.32;;;;;;;43.90;22.35;98752.47;5034852;28;20076;-64
2022/06/01 03:19:19;;;;;;;1.30;0.45;;;;;;;43.87;21.93;98753.41;5034943;28;20057;-64
2022/06/01 03:21:44;;;;;;;0.13;0.13;;;;;;;43.75;22.21;98752.13;5035030;28;20049;-66
2022/06/01 03:24:10;;;;;;;0.20;0.20;;;;;;;43.60;21.99;98750.94;5034659;28;20444;-66
2022/06/01 03:26:36;;;;;;;0.32;0.32;;;;;;;43.29;22.33;98745.69;5034779;28;20052;-64
2022/06/01 03:29:03;;;;;;;0.68;0.68;;;;;;;42.76;22.75;98741.06;5034184;28;20056;-64
2022/06/01 03:31:29;;;;;;;0.20;0.20;;;;;;;42.96;22.37;98752.41;5035060;28;20423;-65
2022/06/01 03:33:56;;;;;;;0.20;0.20;;;;;;;42.94;22.12;98751.28;5035201;28;20051;-64
2022/06/01 03:36:21;;;;;;;0.20;0.20;;;;;;;42.79;21.88;98743.03;5034444;28;20394;-66
2022/06/01 03:38:47;;;;;;;0.30;0.30;;;;;;;42.72;22.12;98755.56;5021728;28;20119;-65
2022/06/01 03:41:13;;;;;;;0.10;0.10;;;;;;;42.97;21.70;98748.28;5034678;28;20552;-64
2022/06/01 03:46:23;;;;;;;0.10;0.10;;;;;;;42.88;21.51;98742.38;5010123;28;20044;-65
2022/06/01 03:48:49;;;;;;;0.55;0.35;;;;;;;43.16;21.37;98743.59;5014731;28;20485;-65
2022/06/01 03:51:15;;;;;;;0.20;0.20;;;;;;;42.96;21.18;98742.94;5027137;28;20103;-66
2022/06/01 03:53:42;;;;;;;0.10;0.10;;;;;;;42.94;20.98;98746.31;5034394;28;20065;-65
2022/06/01 03:56:08;;;;;;;0.20;0.20;;;;;;;43.13;20.79;98744.53;5015157;28;20124;-66
2022/06/01 03:58:35;;;;;;;1.73;0.68;;;;;;;43.51;20.39;98725.63;5014976;28;20540;-66
2022/06/01 04:01:03;;;;;;;0.10;0.10;;;;;;;43.31;20.56;98735.31;5014210;28;20992;-65
2022/06/01 04:03:29;;;;;;;0.10;0.10;;;;;;;43.23;20.05;98728.94;5013212;28;20034;-65
2022/06/01 04:05:56;;;;;;;0.10;0.10;;;;;;;43.44;19.96;98729.56;5014547;28;20049;-66
2022/06/01 04:08:21;;;;;;;0.90;0.40;;;;;;;43.55;20.04;98740.78;5032218;28;20053;-66
2022/06/01 04:10:47;;;;;;;4.20;0.50;;;;;;;43.66;19.84;98726.78;5034218;28;20091;-71
2022/06/01 04:13:14;;;;;;;0.38;0.38;;;;;;;43.43;19.96;98738.69;5034353;28;20120;-71
2022/06/01 04:15:41;;;;;;;0.28;0.28;;;;;;;43.25;19.99;98742.13;5033917;28;20034;-71
2022/06/01 04:18:06;;;;;;;0.22;0.22;;;;;;;43.03;19.85;98745.66;5034255;28;20530;-66
2022/06/01 04:20:33;;;;;;;0.40;0.40;;;;;;;42.77;20.04;98728.22;5019728;28;20124;-66
2022/06/01 04:23:00;;;;;;;0.25;0.25;;;;;;;42.53;20.47;98731.34;5020775;28;20033;-64
2022/06/01 04:25:27;;;;;;;0.20;0.20;;;;;;;42.62;19.83;98738.56;5014817;28;20054;-65
2022/06/01 04:27:53;;;;;;;0.20;0.20;;;;;;;42.80;19.98;98744.66;5017377;28;20037;-65
2022/06/01 04:30:20;;;;;;;0.10;0.10;;;;;;;42.64;19.73;98731.09;5034145;28;20183;-65
2022/06/01 04:32:49;;;;;;;0.17;0.17;;;;;;;42.69;19.64;98726.81;5023629;28;20041;-65
2022/06/01 04:35:17;;;;;;;0.10;0.10;;;;;;;42.64;19.68;98724.47;5014530;28;20046;-65
2022/06/01 04:37:43;;;;;;;0.20;0.20;;;;;;;42.95;19.29;98726.88;5019726;28;20057;-67
2022/06/01 04:40:11;;;;;;;0.10;0.10;;;;;;;43.07;19.20;98720.38;5034114;28;20053;-65
2022/06/01 04:42:38;;;;;;;0.20;0.20;;;;;;;42.82;19.12;98729.75;5033764;28;20038;-65
2022/06/01 04:45:07;;;;;;;0.13;0.13;;;;;;;42.63;19.29;98717.91;5033398;28;20088;-64
2022/06/01 04:47:32;;;;;;;0.10;0.10;;;;;;;42.68;19.13;98728.09;5033459;28;20447;-65
2022/06/01 04:49:58;;;;;;;0.10;0.10;;;;;;;42.80;18.94;98730.22;5020310;28;20046;-65
2022/06/01 04:52:24;;;;;;;0.17;0.17;;;;;;;42.83;18.76;98725.59;5013865;28;20044;-66
2022/06/01 04:54:51;;;;;;;0.22;0.22;;;;;;;43.12;18.47;98716.09;5013792;28;20493;-64
2022/06/01 04:57:17;;;;;;;1.92;0.30;;;;;;;43.21;18.59;98725.69;5012176;28;20533;-65
2022/06/01 04:59:42;;;;;;;0.30;0.30;;;;;;;43.23;18.19;98722.38;5012302;28;20061;-65
2022/06/01 05:02:08;;;;;;;0.20;0.20;;;;;;;42.99;18.40;98728.41;5012269;28;20038;-64
2022/06/01 05:04:34;;;;;;;0.22;0.22;;;;;;;42.37;19.01;98719.84;5013278;28;20124;-64
2022/06/01 05:07:00;;;;;;;0.10;0.10;;;;;;;42.03;18.94;98712.47;5013153;28;20399;-65
2022/06/01 05:09:28;;;;;;;0.10;0.10;;;;;;;41.54;19.18;98715.31;5013432;28;20136;-65
2022/06/01 05:12:34;;;;;;;0.10;0.10;;;;;;;40.46;19.83;98710.63;5017530;28;20052;-65
2022/06/01 05:18:43;;;;;;;;;;;;;;;40.28;19.72;98710.94;5026706;28;20049;-61
2022/06/01 05:25:13;;;;;;;0.10;0.10;;;;;;;39.31;20.03;98689.50;5010393;28;20136;-67
2022/06/01 05:28:18;;;;;;;0.90;0.30;;;;;;;38.63;20.41;98696.09;5009145;28;20133;-66
2022/06/01 05:31:24;;;;;;;0.20;0.20;;;;;;;38.48;20.22;98702.00;5012237;28;20046;-62
2022/06/01 05:43:56;;;;;;;0.10;0.10;;;;;;;37.26;20.78;98685.84;5031918;28;20459;-65
2022/06/01 05:46:23;;;;;;;0.10;0.10;;;;;;;36.30;21.35;98689.47;5032016;28;20045;-66
2022/06/01 05:48:49;;;;;;;0.20;0.20;;;;;;;34.54;22.67;98697.69;5032459;28;20045;-66
2022/06/01 05:51:14;;;;;;;0.13;0.13;;;;;;;31.92;24.46;98697.28;5032372;28;20094;-65
2022/06/01 05:53:41;;;;;;;0.28;0.28;;;;;;;29.58;26.49;98691.53;5032379;28;20030;-65
2022/06/01 05:56:07;;;;;;;0.10;0.10;;;;;;;27.69;27.63;98697.69;5032459;28;20048;-65
2022/06/01 05:58:32;;;;;;;0.17;0.17;;;;;;;26.37;28.57;98689.72;5032144;28;20044;-64
2022/06/01 06:01:05;;;;;;;0.47;0.30;;;;;;;25.29;28.70;98688.13;5031794;28;20119;-64
2022/06/01 06:03:32;;;;;;;0.10;0.10;;;;;;;24.51;29.32;98680.66;5032007;28;20133;-65
2022/06/01 06:06:18;;;;;;;0.20;0.20;;;;;;;24.00;29.05;98686.72;5032266;28;20037;-65
2022/06/01 06:09:00;;;;;;;0.10;0.10;;;;;;;23.49;28.74;98685.41;5032042;28;20048;-64
2022/06/01 06:11:29;;;;;;;0.22;0.22;;;;;;;23.04;28.74;98689.09;5029147;28;20132;-64
2022/06/01 06:13:56;;;;;;;0.20;0.20;;;;;;;22.63;28.75;98688.19;5028507;28;20073;-63
2022/06/01 06:16:22;;;;;;;0.10;0.10;;;;;;;22.34;28.38;98688.59;5028968;28;20045;-65
2022/06/01 06:18:48;;;;;;;0.13;0.13;;;;;;;21.98;28.41;98693.03;5029716;28;20045;-64
2022/06/01 06:21:14;;;;;;;0.40;0.40;;;;;;;21.78;28.07;98688.69;5029414;28;20052;-66
2022/06/01 06:23:40;;;;;;;0.20;0.20;;;;;;;21.69;28.02;98685.81;5029509;28;20045;-65
2022/06/01 06:26:06;;;;;;;0.10;0.10;;;;;;;21.63;27.71;98689.03;5031020;28;20519;-65
2022/06/01 06:28:32;;;;;;;1.35;0.20;;;;;;;21.51;27.46;98683.97;5033257;28;20076;-65
2022/06/01 06:30:58;;;;;;;0.10;0.10;;;;;;;21.38;27.28;98690.31;5033836;28;20080;-64
2022/06/01 06:33:24;;;;;;;0.10;0.10;;;;;;;21.26;27.21;98682.44;5033308;28;20048;-64
2022/06/01 06:36:04;;;;;;;0.10;0.10;;;;;;;21.16;27.06;98698.28;5033724;28;20038;-64
2022/06/01 06:38:31;;;;;;;0.10;0.10;;;;;;;21.06;27.03;98683.69;5014661;28;20414;-64
2022/06/01 06:40:58;;;;;;;0.10;0.10;;;;;;;21.00;26.93;98680.97;5015229;28;20056;-64
2022/06/01 06:43:26;;;;;;;0.20;0.20;;;;;;;20.96;26.77;98679.09;5014972;28;20065;-64
2022/06/01 06:45:56;;;;;;;0.22;0.10;;;;;;;20.85;26.67;98681.25;5014825;28;20099;-66
2022/06/01 06:48:22;;;;;;;0.10;0.10;;;;;;;20.73;26.82;98692.06;5015233;28;20084;-66
2022/06/01 06:50:47;;;;;;;0.10;0.10;;;;;;;20.69;26.65;98680.69;5014969;28;20065;-68
2022/06/01 06:53:13;;;;;;;0.73;0.40;;;;;;;20.70;26.34;98676.78;5014986;28;20125;-64
2022/06/01 06:55:39;;;;;;;1.80;0.30;;;;;;;20.71;26.22;98666.44;5014831;28;20164;-65
2022/06/01 06:58:08;;;;;;;0.20;0.20;;;;;;;20.68;26.27;98672.63;5026231;28;20060;-61
2022/06/01 07:00:34;;;;;;;0.30;0.30;;;;;;;20.64;26.13;98678.78;5034081;28;20037;-62
2022/06/01 07:02:59;;;;;;;0.10;0.10;;;;;;;20.61;26.14;98675.75;5034320;28;20044;-62
2022/06/01 07:08:09;;;;;;;0.35;0.35;;;;;;;20.49;25.99;98681.81;5034510;28;20510;-63
2022/06/01 07:10:35;;;;;;;0.15;0.15;;;;;;;20.43;25.97;98681.06;5034291;28;20034;-61
2022/06/01 07:13:00;;;;;;;0.30;0.30;;;;;;;20.41;26.06;98676.94;5033822;28;20037;-64
2022/06/01 07:15:26;;;;;;;0.32;0.22;;;;;;;20.42;25.82;98661.84;5033757;28;20120;-64
2022/06/01 07:17:52;;;;;;;0.30;0.30;;;;;;;20.40;25.80;98666.91;5033741;28;20044;-61
2022/06/01 07:20:18;;;;;;;0.55;0.30;;;;;;;20.37;25.92;98664.72;5033913;28;20040;-62
2022/06/01 07:22:44;;;;;;;0.32;0.30;;;;;;;20.35;25.74;98653.88;5034034;28;20044;-61
2022/06/01 07:25:10;;;;;;;0.63;0.25;;;;;;;20.34;25.82;98657.78;5033961;28;20037;-61
2022/06/01 07:27:36;;;;;;;0.10;0.10;;;;;;;20.34;25.73;98654.19;5034033;28;20408;-62
2022/06/01 07:30:04;;;;;;;0.43;0.43;;;;;;;20.31;25.49;98642.50;5034253;28;20045;-63
2022/06/01 07:32:30;;;;;;;0.20;0.20;;;;;;;20.36;25.54;98663.91;5033612;28;20064;-60
2022/06/01 07:34:56;;;;;;;0.30;0.22;;;;;;;20.37;25.50;98667.53;5033890;28;20504;-67
2022/06/01 07:43:06;;;;;;;0.20;0.20;;;;;;;20.43;25.53;98655.97;5018963;28;20052;-61
2022/06/01 07:45:41;;;;;;;0.22;0.22;;;;;;;20.46;25.33;98648.97;5033081;28;20037;-63
2022/06/01 07:48:08;;;;;;;0.25;0.25;;;;;;;20.50;25.40;98654.78;5033473;28;20472;-62
2022/06/01 07:50:34;;;;;;;0.20;0.20;;;;;;;20.47;25.35;98654.22;5033342;28;20095;-63
2022/06/01 07:53:02;;;;;;;0.20;0.20;;;;;;;20.46;25.50;98643.38;5015778;28;20417;-62
2022/06/01 07:55:28;;;;;;;0.20;0.20;;;;;;;20.46;25.34;98643.38;5033267;28;20049;-62
2022/06/01 07:57:54;;;;;;;0.10;0.10;;;;;;;20.49;25.33;98639.97;5033462;28;20053;-61
2022/06/01 08:00:20;;;;;;;0.20;0.20;;;;;;;20.49;25.34;98637.19;5033188;28;20037;-66
2022/06/01 08:02:47;;;;;;;0.10;0.10;;;;;;;20.54;25.48;98639.91;5033987;28;20068;-66
2022/06/01 08:05:15;;;;;;;0.30;0.30;;;;;;;20.57;25.35;98630.94;5033328;28;20033;-64
2022/06/01 08:07:43;;;;;;;0.10;0.10;;;;;;;20.60;25.26;98626.72;5033085;28;20164;-64
2022/06/01 08:10:10;;;;;;;0.30;0.30;;;;;;;20.64;25.23;98624.94;5031494;28;20053;-66
2022/06/01 08:15:20;;;;;;;0.40;0.40;;;;;;;20.68;25.12;98628.00;5031212;28;20044;-67
2022/06/01 08:17:47;;;;;;;0.40;0.32;;;;;;;20.67;25.21;98632.75;5033125;28;20103;-66
2022/06/01 08:20:14;;;;;;;1.45;0.20;;;;;;;20.64;25.26;98620.22;5033056;28;20048;-68
2022/06/01 08:22:41;;;;;;;0.30;0.30;;;;;;;20.67;25.08;98627.19;5032859;28;20451;-65
2022/06/01 08:25:11;;;;;;;0.20;0.20;;;;;;;20.74;25.06;98633.16;5032965;28;20045;-64
2022/06/01 08:27:36;;;;;;;0.20;0.20;;;;;;;20.78;25.19;98638.97;5033879;28;20026;-63
2022/06/01 08:30:08;;;;;;;0.10;0.10;;;;;;;20.78;25.12;98633.38;5035816;28;20052;-62
2022/06/01 08:32:34;;;;;;;0.20;0.20;;;;;;;20.79;25.17;98623.91;5033307;28;20041;-64
2022/06/01 08:35:01;;;;;;;0.10;0.10;;;;;;;20.80;25.18;98617.16;5032764;28;20116;-63
2022/06/01 08:37:27;;;;;;;0.10;0.10;;;;;;;20.87;25.26;98627.94;5032660;28;20148;-61
2022/06/01 08:39:52;;;;;;;0.13;0.13;;;;;;;20.90;25.06;98630.91;5032695;28;20052;-60
2022/06/01 08:42:21;;;;;;;1.13;0.70;;;;;;;20.95;24.99;98621.63;5032569;28;20053;-62
2022/06/01 08:44:49;;;;;;;0.10;0.10;;;;;;;20.97;25.19;98620.19;5032275;28;20415;-63
2022/06/01 08:47:39;;;;;;;0.10;0.10;;;;;;;21.02;25.06;98621.22;5033017;28;20483;-64
2022/06/01 08:50:29;;;;;;;0.40;0.40;;;;;;;21.05;24.96;98618.63;5033423;28;20045;-63
2022/06/01 08:52:58;;;;;;;0.95;0.20;;;;;;;21.07;25.11;98619.16;5033869;28;20056;-64
2022/06/01 08:55:27;;;;;;;0.47;0.47;;;;;;;21.11;24.88;98614.63;5034140;28;20042;-65
2022/06/01 08:58:09;;;;;;;0.10;0.10;;;;;;;21.14;25.01;98602.84;5022101;28;20513;-66
2022/06/01 09:00:42;;;;;;;0.38;0.38;;;;;;;21.15;24.99;98614.81;5013070;28;20042;-63
2022/06/01 09:03:21;;;;;;;0.38;0.30;;;;;;;21.13;25.06;98603.16;5013350;28;20501;-63
2022/06/01 09:05:59;;;;;;;0.35;0.35;;;;;;;21.11;25.10;98606.25;5012475;28;20053;-63
2022/06/01 09:08:34;;;;;;;0.13;0.13;;;;;;;21.14;25.08;98614.00;5012877;28;20423;-62
2022/06/01 09:11:11;;;;;;;0.17;0.17;;;;;;;21.15;25.21;98609.25;5011323;28;20099;-64
2022/06/01 09:13:58;;;;;;;0.22;0.22;;;;;;;21.20;24.96;98605.50;5012493;28;20042;-64
2022/06/01 09:16:50;;;;;;;0.98;0.32;;;;;;;21.26;25.08;98605.09;5012772;28;20042;-63
2022/06/01 09:19:21;;;;;;;0.38;0.38;;;;;;;21.38;24.98;98606.53;5012750;28;20540;-63
2022/06/01 09:24:51;;;;;;;0.10;0.10;;;;;;;21.48;24.79;98604.38;5014588;28;20048;-64
2022/06/01 09:27:32;;;;;;;6.38;0.30;;;;;;;21.50;24.86;98595.69;5013196;28;20047;-63
2022/06/01 09:29:58;;;;;;;0.10;0.10;;;;;;;21.55;25.17;98600.34;5013893;28;20128;-65
2022/06/01 09:32:40;;;;;;;0.10;0.10;;;;;;;21.58;24.99;98596.94;5012954;28;20126;-63
2022/06/01 09:35:11;;;;;;;0.17;0.17;;;;;;;21.59;24.94;98596.63;5014634;28;20132;-65
2022/06/01 09:37:43;;;;;;;0.10;0.10;;;;;;;21.60;24.91;98587.09;5017097;28;20053;-64
2022/06/01 09:40:30;;;;;;;0.20;0.20;;;;;;;21.61;24.96;98574.78;5032661;28;20519;-64
2022/06/01 09:43:00;;;;;;;0.88;0.35;;;;;;;21.59;25.06;98576.25;5032343;28;20040;-64
2022/06/01 09:45:39;;;;;;;0.20;0.20;;;;;;;21.61;24.63;98577.59;5031914;28;20484;-63
2022/06/01 09:48:24;;;;;;;0.15;0.15;;;;;;;21.69;24.85;98576.00;5047672;28;20045;-63
2022/06/01 09:51:08;;;;;;;1.65;0.90;;;;;;;21.74;24.94;98572.28;5031007;28;20049;-64
2022/06/01 09:53:42;;;;;;;0.22;0.22;;;;;;;21.74;24.99;98573.09;5032529;28;20048;-63
2022/06/01 09:56:08;;;;;;;0.30;0.30;;;;;;;21.79;24.87;98577.72;5032309;28;20045;-65
2022/06/01 10:07:01;;;;;;;0.40;0.40;;;;;;;22.04;24.84;98551.16;5032233;28;20091;-67
2022/06/01 10:09:30;;;;;;;0.10;0.10;;;;;;;22.09;24.90;98559.41;5032178;28;20041;-64
2022/06/01 10:11:57;;;;;;;0.10;0.10;;;;;;;22.18;24.65;98571.47;5032379;28;20052;-63
2022/06/01 10:14:37;;;;;;;0.30;0.30;;;;;;;22.24;24.71;98574.97;5031612;28;20147;-64
2022/06/01 10:17:24;;;;;;;0.20;0.20;;;;;;;22.31;24.56;98569.75;5032280;28;20045;-65
2022/06/01 10:20:21;;;;;;;0.10;0.10;;;;;;;22.34;24.76;98562.75;5019808;28;20144;-65
2022/06/01 10:23:12;;;;;;;0.22;0.22;;;;;;;22.35;24.83;98568.00;5011530;28;20041;-64
2022/06/01 10:25:52;;;;;;;0.28;0.28;;;;;;;22.42;24.65;98567.53;5011319;28;20045;-64
2022/06/01 10:28:32;;;;;;;0.10;0.10;;;;;;;22.50;24.88;98574.38;5011437;28;20503;-69
2022/06/01 10:31:01;;;;;;;0.20;0.20;;;;;;;22.53;24.68;98562.53;5011536;28;20065;-65
2022/06/01 10:34:09;;;;;;;0.15;0.15;;;;;;;22.54;24.64;98565.00;5010504;28;20132;-63
2022/06/01 10:36:46;;;;;;;0.10;0.10;;;;;;;22.55;24.70;98560.22;5010966;28;20069;-64
2022/06/01 10:43:19;;;;;;;0.20;0.20;;;;;;;22.48;24.73;98568.25;5026582;28;20079;-62
2022/06/01 10:46:25;;;;;;;0.28;0.20;;;;;;;22.48;24.61;98569.09;5030673;28;20042;-64
2022/06/01 10:49:15;;;;;;;0.30;0.30;;;;;;;22.53;24.58;98576.53;5030898;28;20045;-63
2022/06/01 10:52:19;;;;;;;0.40;0.40;;;;;;;22.62;24.70;98579.38;5030801;28;20128;-63
2022/06/01 11:02:16;;;;;;;0.10;0.10;;;;;;;22.67;24.78;98552.09;5028091;28;20051;-66
2022/06/01 11:04:50;;;;;;;0.30;0.30;;;;;;;22.66;24.63;98547.63;5030464;28;20158;-63
2022/06/01 11:07:42;;;;;;;0.20;0.20;;;;;;;22.67;24.60;98554.88;5030555;28;20091;-62
2022/06/01 11:10:33;;;;;;;0.25;0.25;;;;;;;22.73;24.67;98555.53;5027975;28;20045;-62
2022/06/01 11:17:06;;;;;;;0.65;0.45;;;;;;;22.81;24.47;98551.16;5032144;28;20103;-63
2022/06/01 11:19:47;;;;;;;0.95;0.73;;;;;;;22.86;24.46;98551.81;5000581;28;20100;-65
2022/06/01 11:22:18;;;;;;;0.25;0.13;;;;;;;22.90;24.59;98569.63;5034266;28;20523;-61
2022/06/01 11:25:07;;;;;;;0.65;0.43;;;;;;;22.93;24.46;98554.97;5034171;28;20095;-63
2022/06/01 11:28:01;;;;;;;0.10;0.10;;;;;;;22.93;24.56;98557.78;5034369;28;20500;-64
2022/06/01 11:30:35;;;;;;;;;;;;;;;22.91;24.49;98543.28;5034517;28;20044;-64
2022/06/01 11:33:15;;;;;;;0.10;0.10;;;;;;;22.92;24.62;98547.75;5033420;28;19920;-61
2022/06/01 11:35:45;;;;;;;0.40;0.17;;;;;;;22.91;24.56;98543.28;5014964;28;20492;-64
2022/06/01 11:38:28;;;;;;;0.10;0.10;;;;;;;22.95;24.54;98551.03;5026891;28;20060;-63
2022/06/01 11:40:59;;;;;;;0.40;0.40;;;;;;;22.97;24.48;98552.38;5032966;28;20077;-65
2022/06/01 11:43:31;;;;;;;0.10;0.10;;;;;;;23.00;24.58;98554.53;5033909;28;20050;-63
2022/06/01 11:46:04;;;;;;;0.10;0.10;;;;;;;23.02;24.65;98565.38;5033496;28;20045;-63
2022/06/01 11:48:39;;;;;;;0.32;0.32;;;;;;;23.01;24.46;98549.72;5032716;28;20582;-64
2022/06/01 11:51:18;;;;;;;0.10;0.10;;;;;;;23.03;24.48;98565.06;4996986;28;20560;-62
2022/06/01 11:53:58;;;;;;;0.28;0.25;;;;;;;23.06;24.57;98555.19;5019306;28;20499;-63
2022/06/01 11:56:33;;;;;;;0.45;0.25;;;;;;;23.11;24.55;98555.06;5031292;28;20044;-63
2022/06/01 11:59:22;;;;;;;0.10;0.10;;;;;;;23.11;24.63;98548.66;5030437;28;20124;-63
2022/06/01 12:01:57;;;;;;;0.17;0.17;;;;;;;23.09;24.64;98555.38;5033543;28;20045;-63
2022/06/01 12:04:50;;;;;;;0.10;0.10;;;;;;;23.09;24.63;98563.75;5033109;28;20124;-63
2022/06/01 12:07:24;;;;;;;0.13;0.13;;;;;;;23.14;24.67;98560.03;5032985;28;20050;-62
2022/06/01 12:10:03;;;;;;;0.40;0.40;;;;;;;23.16;24.56;98563.34;5015387;28;20140;-62
2022/06/01 12:12:32;;;;;;;0.10;0.10;;;;;;;23.16;24.27;98562.50;5033011;28;20072;-65
2022/06/01 12:15:16;;;;;;;0.47;0.25;;;;;;;23.18;24.31;98566.63;5029218;28;20083;-63
2022/06/01 12:18:14;;;;;;;0.20;0.20;;;;;;;23.20;24.34;98557.91;5030240;28;20043;-63
2022/06/01 12:20:40;;;;;;;0.35;0.15;;;;;;;23.19;24.46;98559.88;5029232;28;20057;-63
2022/06/01 12:28:56;;;;;;;0.70;0.52;;;;;;;23.26;24.16;98554.63;5029063;28;20084;-62
2022/06/01 12:31:31;;;;;;;0.20;0.20;;;;;;;23.29;24.46;98549.53;5028717;28;20045;-63
2022/06/01 12:34:16;;;;;;;0.20;0.20;;;;;;;23.29;24.52;98555.13;5030449;28;20045;-64
2022/06/01 12:36:47;;;;;;;0.40;0.40;;;;;;;23.28;24.19;98557.09;5030218;28;20037;-64
2022/06/01 12:39:42;;;;;;;0.10;0.10;;;;;;;23.29;24.18;98547.53;5031054;28;20045;-66
2022/06/01 12:42:38;;;;;;;0.17;0.17;;;;;;;23.29;24.26;98550.34;5025554;28;20052;-62
2022/06/01 12:45:11;;;;;;;0.65;0.20;;;;;;;23.30;24.10;98556.78;5031648;28;20050;-63
2022/06/01 12:47:43;;;;;;;0.10;0.10;;;;;;;23.29;24.21;98553.13;5032734;28;20037;-61
2022/06/01 12:50:16;;;;;;;0.13;0.13;;;;;;;23.29;24.24;98550.34;5031918;28;20095;-63
2022/06/01 12:52:43;;;;;;;0.22;0.22;;;;;;;23.31;24.42;98548.06;5032316;28;20044;-62
2022/06/01 12:55:12;;;;;;;0.47;0.43;;;;;;;23.34;24.22;98544.59;5031237;28;20052;-62
2022/06/01 12:57:49;;;;;;;0.10;0.10;;;;;;;23.37;24.24;98549.53;5032374;28;20033;-64
2022/06/01 13:00:23;;;;;;;0.28;0.28;;;;;;;23.41;24.15;98558.13;5033397;28;20045;-64
2022/06/01 13:02:49;;;;;;;0.10;0.10;;;;;;;23.41;24.19;98553.34;5033237;28;20052;-64
2022/06/01 13:05:35;;;;;;;0.17;0.17;;;;;;;23.41;24.07;98550.53;5032312;28;20041;-62